Time;durP1;ratioP1;P1;durP2;ratioP2;P2;SDS_P1;SDS_P2;PMS_P1;PMS_P2;Temp;Humidity;BMP_temperature;BMP_pressure;BME280_temperature;BME280_humidity;BME280_pressure;Samples;Min_cycle;Max_cycle;Signal;HPM_P1;HPM_P2
2024/01/07 06:58:25;;;;;;;0.80;0.80;;;;;;;;;;6162467;23;20127;-96
2024/01/07 07:00:50;;;;;;;0.90;0.90;;;;;;;;;;6161692;23;20436;-96
2024/01/07 07:03:16;;;;;;;0.80;0.80;;;;;;;;;;6159034;23;20025;-96
2024/01/07 07:05:41;;;;;;;0.88;0.88;;;;;;;;;;6161221;23;20037;-93
2024/01/07 07:08:07;;;;;;;0.80;0.80;;;;;;;;;;6156985;23;20065;-95
2024/01/07 07:10:32;;;;;;;1.00;1.00;;;;;;;;;;6158109;23;20005;-94
2024/01/07 07:13:01;;;;;;;0.88;0.88;;;;;;;;;;6156907;23;20046;-94
2024/01/07 07:15:28;;;;;;;2.38;0.80;;;;;;;;;;6133127;23;20447;-94
2024/01/07 09:00:34;;;;;;;1.20;0.93;;;;;;;;;;6166472;23;20037;-95
2024/01/07 09:02:59;;;;;;;0.82;0.82;;;;;;;;;;6170187;22;20031;-89
2024/01/07 09:05:24;;;;;;;1.00;1.00;;;;;;;;;;6157553;23;20412;-94
2024/01/07 09:07:50;;;;;;;0.90;0.90;;;;;;;;;;6131739;23;20052;-94
2024/01/07 09:10:17;;;;;;;0.88;0.88;;;;;;;;;;6131359;23;20005;-96
2024/01/07 09:12:43;;;;;;;0.98;0.98;;;;;;;;;;6131665;23;20010;-90
2024/01/07 09:15:10;;;;;;;0.90;0.90;;;;;;;;;;6132012;23;20005;-96
2024/01/07 09:17:37;;;;;;;0.70;0.70;;;;;;;;;;6131542;23;20068;-94
2024/01/07 09:20:07;;;;;;;2.05;1.02;;;;;;;;;;6132277;23;20006;-94
2024/01/07 09:22:34;;;;;;;1.45;1.35;;;;;;;;;;6131938;23;20001;-96
2024/01/07 09:25:02;;;;;;;1.00;1.00;;;;;;;;;;6131384;23;20015;-96
2024/01/07 09:27:28;;;;;;;1.52;1.10;;;;;;;;;;6131598;23;20013;-95
2024/01/07 09:29:53;;;;;;;1.17;1.15;;;;;;;;;;6133978;23;20005;-94
2024/01/07 09:32:19;;;;;;;1.35;1.25;;;;;;;;;;6134730;23;20017;-95
2024/01/07 09:34:44;;;;;;;1.40;1.30;;;;;;;;;;6134412;23;20005;-95
2024/01/07 09:37:10;;;;;;;1.30;1.20;;;;;;;;;;6132064;23;20013;-95
2024/01/07 10:02:53;;;;;;;1.20;1.10;;;;;;;;;;6170969;23;20036;-88
2024/01/07 10:05:19;;;;;;;1.90;1.30;;;;;;;;;;6159536;23;20054;-88
2024/01/07 10:07:44;;;;;;;1.10;1.10;;;;;;;;;;6159946;23;20001;-88
2024/01/07 10:10:17;;;;;;;1.33;1.23;;;;;;;;;;6159774;23;20043;-88
2024/01/07 10:12:46;;;;;;;1.30;1.20;;;;;;;;;;6185705;23;20062;-88
2024/01/07 10:15:12;;;;;;;1.75;1.25;;;;;;;;;;6159935;23;20005;-88
2024/01/07 10:17:39;;;;;;;1.30;1.20;;;;;;;;;;6159178;23;20439;-88
2024/01/07 10:20:09;;;;;;;1.30;1.20;;;;;;;;;;6186257;23;20004;-87
2024/01/07 10:22:35;;;;;;;;;;;;;;;;;;6186746;23;20012;-88
2024/01/07 10:25:00;;;;;;;1.88;1.30;;;;;;;;;;6186788;23;19943;-87
2024/01/07 10:27:26;;;;;;;1.67;1.10;;;;;;;;;;6188485;23;20055;-88
2024/01/07 10:29:55;;;;;;;1.30;1.20;;;;;;;;;;6187908;23;20001;-90
2024/01/07 10:32:20;;;;;;;1.55;1.45;;;;;;;;;;6161381;23;20020;-90
2024/01/07 10:34:47;;;;;;;1.20;1.10;;;;;;;;;;6187962;23;20064;-88
2024/01/07 10:37:13;;;;;;;1.05;0.98;;;;;;;;;;6187736;23;20393;-87
2024/01/07 10:39:38;;;;;;;1.05;1.00;;;;;;;;;;6161258;23;20016;-87
2024/01/07 10:42:05;;;;;;;0.90;0.90;;;;;;;;;;6161385;23;20001;-87
2024/01/07 10:44:32;;;;;;;1.00;1.00;;;;;;;;;;6187595;23;20063;-87
2024/01/07 10:46:58;;;;;;;1.88;1.77;;;;;;;;;;6161155;23;20355;-87
2024/01/07 10:49:25;;;;;;;1.52;0.90;;;;;;;;;;6187466;23;20002;-87
2024/01/07 10:51:59;;;;;;;1.00;1.00;;;;;;;;;;6187499;23;20080;-92
2024/01/07 10:54:28;;;;;;;0.90;0.90;;;;;;;;;;6188359;23;20001;-89
2024/01/07 10:56:58;;;;;;;1.10;1.10;;;;;;;;;;6187498;23;20009;-89
2024/01/07 10:59:25;;;;;;;1.50;1.40;;;;;;;;;;6164636;23;20011;-88
2024/01/07 11:01:50;;;;;;;1.70;1.60;;;;;;;;;;6187447;23;20009;-87
2024/01/07 11:04:29;;;;;;;1.02;1.02;;;;;;;;;;6160832;23;20012;-88
2024/01/07 11:07:08;;;;;;;1.60;1.00;;;;;;;;;;6187447;23;20009;-88
2024/01/07 11:09:50;;;;;;;0.95;0.95;;;;;;;;;;6161010;23;20005;-88
2024/01/07 11:12:16;;;;;;;1.40;1.30;;;;;;;;;;6161208;23;20079;-89
2024/01/07 11:14:47;;;;;;;1.15;1.15;;;;;;;;;;6186272;23;20324;-88
2024/01/07 11:17:13;;;;;;;1.23;1.20;;;;;;;;;;6161056;23;20009;-90
2024/01/07 11:19:56;;;;;;;0.80;0.80;;;;;;;;;;6161829;23;20013;-88
2024/01/07 11:22:40;;;;;;;1.08;1.00;;;;;;;;;;6160845;23;20009;-92
2024/01/07 11:25:32;;;;;;;0.90;0.90;;;;;;;;;;6187611;23;20005;-89
2024/01/07 11:27:58;;;;;;;1.10;1.10;;;;;;;;;;6186987;23;20059;-88
2024/01/07 11:30:25;;;;;;;1.80;1.67;;;;;;;;;;6160576;23;20028;-88
2024/01/07 11:32:59;;;;;;;2.22;2.03;;;;;;;;;;6187233;23;20431;-91
2024/01/07 11:35:53;;;;;;;2.05;1.85;;;;;;;;;;6160685;23;20436;-90
2024/01/07 11:38:18;;;;;;;1.77;1.67;;;;;;;;;;6160748;23;20013;-90
2024/01/07 11:40:45;;;;;;;2.55;2.35;;;;;;;;;;6161017;23;20313;-93
2024/01/07 11:43:11;;;;;;;2.25;1.90;;;;;;;;;;6160551;23;20005;-87
2024/01/07 11:45:36;;;;;;;2.78;2.10;;;;;;;;;;6160357;23;20084;-88
2024/01/07 11:48:02;;;;;;;2.10;1.80;;;;;;;;;;6160262;23;20040;-88
2024/01/07 11:50:28;;;;;;;1.67;1.58;;;;;;;;;;6160574;23;20146;-89
2024/01/07 11:52:53;;;;;;;3.15;2.28;;;;;;;;;;6160347;23;20297;-89
2024/01/07 11:55:20;;;;;;;1.67;1.58;;;;;;;;;;6160469;23;20009;-87
2024/01/07 11:57:46;;;;;;;1.70;1.20;;;;;;;;;;6160842;23;20033;-88
2024/01/07 12:00:12;;;;;;;1.20;1.20;;;;;;;;;;6161350;23;20442;-95
2024/01/07 12:02:37;;;;;;;1.80;1.70;;;;;;;;;;6155554;23;20037;-88
2024/01/07 12:05:04;;;;;;;1.10;1.10;;;;;;;;;;6155724;23;20002;-89
2024/01/07 12:07:29;;;;;;;1.30;1.20;;;;;;;;;;6157352;23;20060;-91
2024/01/07 12:09:57;;;;;;;1.10;1.10;;;;;;;;;;6157073;23;20077;-88
2024/01/07 12:12:27;;;;;;;1.20;1.10;;;;;;;;;;6155735;23;20428;-89
2024/01/07 12:14:52;;;;;;;1.40;1.30;;;;;;;;;;6157184;23;20001;-91
2024/01/07 12:17:18;;;;;;;1.00;1.00;;;;;;;;;;6155221;23;20072;-91
2024/01/07 12:19:48;;;;;;;1.20;1.10;;;;;;;;;;6154635;23;20441;-88
2024/01/07 12:22:13;;;;;;;1.30;1.20;;;;;;;;;;6156692;23;20055;-87
2024/01/07 12:24:44;;;;;;;1.40;1.30;;;;;;;;;;6154795;23;20092;-89
2024/01/07 12:27:10;;;;;;;3.25;1.55;;;;;;;;;;6155479;23;20021;-88
2024/01/07 12:29:35;;;;;;;2.20;2.00;;;;;;;;;;6155519;23;20084;-89
2024/01/07 12:32:03;;;;;;;1.88;1.52;;;;;;;;;;6155796;23;20326;-87
2024/01/07 12:34:31;;;;;;;1.30;1.20;;;;;;;;;;6156527;23;20029;-89
2024/01/07 12:36:56;;;;;;;1.20;1.10;;;;;;;;;;6154839;23;20109;-90
2024/01/07 12:39:22;;;;;;;1.00;1.00;;;;;;;;;;6156360;23;20365;-88
2024/01/07 12:41:47;;;;;;;0.90;0.90;;;;;;;;;;6155283;23;20460;-91
2024/01/07 12:44:19;;;;;;;1.02;1.00;;;;;;;;;;6156867;23;20017;-87
2024/01/07 12:46:48;;;;;;;1.00;1.00;;;;;;;;;;6154950;23;20084;-88
2024/01/07 12:49:16;;;;;;;1.00;1.00;;;;;;;;;;6153934;23;20037;-89
2024/01/07 12:51:42;;;;;;;1.00;1.00;;;;;;;;;;6156190;23;20068;-88
2024/01/07 12:54:07;;;;;;;1.15;1.00;;;;;;;;;;6155163;23;20048;-89
2024/01/07 12:56:33;;;;;;;1.30;1.20;;;;;;;;;;6157809;23;20006;-88
2024/01/07 12:59:02;;;;;;;1.02;1.00;;;;;;;;;;6156568;23;20041;-94
2024/01/07 13:01:27;;;;;;;1.40;1.00;;;;;;;;;;6158135;23;20061;-91
2024/01/07 13:03:53;;;;;;;0.90;0.90;;;;;;;;;;6160281;23;20391;-90
2024/01/07 13:06:18;;;;;;;1.10;1.05;;;;;;;;;;6185899;23;20009;-88
2024/01/07 13:08:47;;;;;;;1.50;1.40;;;;;;;;;;6160558;23;20004;-90
2024/01/07 13:11:16;;;;;;;2.72;2.28;;;;;;;;;;6160023;23;20425;-89
2024/01/07 13:13:42;;;;;;;1.17;1.13;;;;;;;;;;6186204;23;20008;-91
2024/01/07 13:16:07;;;;;;;1.15;0.95;;;;;;;;;;6159940;23;20310;-89
2024/01/07 13:18:33;;;;;;;0.88;0.88;;;;;;;;;;6161323;23;20333;-88
2024/01/07 13:20:58;;;;;;;0.95;0.95;;;;;;;;;;6185862;23;20008;-86
2024/01/07 13:23:23;;;;;;;1.00;1.00;;;;;;;;;;6186169;23;20016;-86
2024/01/07 13:25:49;;;;;;;0.98;0.98;;;;;;;;;;6185754;23;20124;-85
2024/01/07 13:28:15;;;;;;;0.90;0.90;;;;;;;;;;6185422;23;20001;-86
2024/01/07 13:30:40;;;;;;;0.85;0.85;;;;;;;;;;6159652;23;20340;-86
2024/01/07 13:33:06;;;;;;;1.10;1.10;;;;;;;;;;6185643;23;20057;-86
2024/01/07 13:35:31;;;;;;;1.00;1.00;;;;;;;;;;6159527;23;20309;-90
2024/01/07 13:38:00;;;;;;;0.98;0.98;;;;;;;;;;6185769;23;20005;-88
2024/01/07 13:40:35;;;;;;;0.88;0.88;;;;;;;;;;6185962;23;20072;-88
2024/01/07 13:43:09;;;;;;;3.03;0.90;;;;;;;;;;6186048;23;20009;-86
2024/01/07 13:45:40;;;;;;;0.90;0.90;;;;;;;;;;6160044;23;20044;-87
2024/01/07 13:48:12;;;;;;;1.13;1.10;;;;;;;;;;6160739;23;20008;-95
2024/01/07 13:50:42;;;;;;;0.90;0.90;;;;;;;;;;6160232;23;20047;-94
2024/01/07 13:53:11;;;;;;;1.10;1.00;;;;;;;;;;6135504;23;20013;-95
2024/01/07 13:55:41;;;;;;;0.80;0.80;;;;;;;;;;6159887;23;20001;-94
2024/01/07 13:58:15;;;;;;;0.93;0.93;;;;;;;;;;6158880;23;20144;-87
2024/01/07 14:00:41;;;;;;;1.30;1.20;;;;;;;;;;6186627;23;20001;-88
2024/01/07 14:03:07;;;;;;;0.90;0.90;;;;;;;;;;6186505;23;20013;-87
2024/01/07 14:05:32;;;;;;;1.13;1.10;;;;;;;;;;6162430;23;20016;-86
2024/01/07 14:07:58;;;;;;;2.90;1.98;;;;;;;;;;6187580;23;20009;-87
2024/01/07 14:10:25;;;;;;;17.23;6.80;;;;;;;;;;6187945;23;20008;-88
2024/01/07 14:12:51;;;;;;;2.70;1.77;;;;;;;;;;6161988;23;20017;-87
2024/01/07 14:15:18;;;;;;;3.20;2.60;;;;;;;;;;6161502;23;20440;-87
2024/01/07 14:17:43;;;;;;;4.18;1.80;;;;;;;;;;6187581;23;20009;-87
2024/01/07 14:20:09;;;;;;;2.03;1.80;;;;;;;;;;6188137;23;20320;-87
2024/01/07 14:22:35;;;;;;;2.40;2.20;;;;;;;;;;6187957;23;19993;-89
2024/01/07 14:25:01;;;;;;;1.20;1.10;;;;;;;;;;6161501;23;20349;-88
2024/01/07 16:25:16;;;;;;;1.50;1.40;;;;;;;;;;6163146;23;20436;-89
2024/01/07 16:27:45;;;;;;;1.30;1.10;;;;;;;;;;6188532;23;20019;-88
2024/01/07 16:30:16;;;;;;;1.38;1.27;;;;;;;;;;6187273;23;20309;-87
2024/01/07 16:32:45;;;;;;;1.52;1.42;;;;;;;;;;6186761;23;20004;-88
2024/01/07 16:35:11;;;;;;;2.03;1.60;;;;;;;;;;6186410;23;20009;-88
2024/01/07 16:37:37;;;;;;;1.75;1.35;;;;;;;;;;6185137;23;20364;-89
2024/01/07 16:40:12;;;;;;;1.35;1.25;;;;;;;;;;6186169;23;20016;-90
2024/01/07 16:42:38;;;;;;;1.20;1.20;;;;;;;;;;6185524;23;20336;-88
2024/01/07 16:45:10;;;;;;;1.40;1.30;;;;;;;;;;6186399;23;20063;-87
2024/01/07 16:47:39;;;;;;;1.30;1.20;;;;;;;;;;6188981;23;20013;-89
2024/01/07 16:50:05;;;;;;;1.45;1.00;;;;;;;;;;6191666;23;20454;-89
2024/01/07 16:52:31;;;;;;;1.10;1.10;;;;;;;;;;6190039;23;20009;-89
2024/01/07 16:54:56;;;;;;;1.00;1.00;;;;;;;;;;6190862;23;20012;-89
2024/01/07 16:57:22;;;;;;;3.50;1.25;;;;;;;;;;6189174;23;20036;-90
2024/01/07 16:59:47;;;;;;;1.10;1.10;;;;;;;;;;6186578;23;20005;-90
2024/01/07 17:02:13;;;;;;;1.08;1.08;;;;;;;;;;6191520;23;20005;-89
2024/01/07 17:04:38;;;;;;;1.00;1.00;;;;;;;;;;6189835;23;20136;-89
2024/01/07 17:07:04;;;;;;;1.08;1.08;;;;;;;;;;6187705;23;20008;-89
2024/01/07 17:09:31;;;;;;;1.40;1.27;;;;;;;;;;6189948;23;20078;-89
2024/01/07 17:11:56;;;;;;;1.35;1.27;;;;;;;;;;6189776;23;20001;-89
2024/01/07 17:14:22;;;;;;;1.40;1.30;;;;;;;;;;6162361;23;20040;-90
2024/01/07 17:16:47;;;;;;;1.17;1.10;;;;;;;;;;6184924;23;20005;-90
2024/01/07 17:19:13;;;;;;;1.33;1.23;;;;;;;;;;6184894;23;20104;-90
2024/01/07 17:21:38;;;;;;;1.50;1.40;;;;;;;;;;6184790;23;20056;-89
2024/01/07 17:24:04;;;;;;;1.17;1.17;;;;;;;;;;6185113;23;20037;-90
2024/01/07 17:26:30;;;;;;;1.20;1.20;;;;;;;;;;6186087;23;20009;-90
2024/01/07 17:28:56;;;;;;;1.15;1.15;;;;;;;;;;6185704;23;20091;-90
2024/01/07 17:31:22;;;;;;;1.40;1.30;;;;;;;;;;6186407;23;20012;-90
2024/01/07 17:33:49;;;;;;;1.45;1.35;;;;;;;;;;6184887;23;20036;-90
2024/01/07 17:36:18;;;;;;;1.30;1.20;;;;;;;;;;6184567;23;20084;-90
2024/01/07 17:38:46;;;;;;;1.30;1.30;;;;;;;;;;6185484;23;20332;-90
2024/01/07 17:41:14;;;;;;;1.10;1.10;;;;;;;;;;6185434;23;20001;-91
2024/01/07 17:43:40;;;;;;;1.67;1.38;;;;;;;;;;6185004;23;19997;-91
2024/01/07 17:46:09;;;;;;;1.25;1.25;;;;;;;;;;6185156;23;20058;-91
2024/01/07 17:48:40;;;;;;;1.40;1.30;;;;;;;;;;6184796;23;20009;-91
2024/01/07 17:51:08;;;;;;;1.52;1.42;;;;;;;;;;6184830;23;20020;-92
2024/01/07 17:53:40;;;;;;;1.25;1.00;;;;;;;;;;6184695;23;20059;-91
2024/01/07 17:56:28;;;;;;;1.00;1.00;;;;;;;;;;6185658;23;20487;-91
2024/01/07 17:58:54;;;;;;;1.20;1.20;;;;;;;;;;6185617;23;20001;-90
2024/01/07 18:01:27;;;;;;;1.23;1.20;;;;;;;;;;6185276;23;20009;-91
2024/01/07 18:03:53;;;;;;;1.48;1.30;;;;;;;;;;6185357;23;20031;-90
2024/01/07 18:06:20;;;;;;;1.30;1.30;;;;;;;;;;6184932;23;20009;-90
2024/01/07 18:08:46;;;;;;;1.25;1.20;;;;;;;;;;6184456;23;20028;-90
2024/01/07 18:11:11;;;;;;;1.92;1.70;;;;;;;;;;6185182;23;20421;-90
2024/01/07 18:13:37;;;;;;;2.40;1.38;;;;;;;;;;6184406;23;20372;-88
2024/01/07 18:16:03;;;;;;;1.20;1.20;;;;;;;;;;6183727;23;20028;-89
2024/01/07 18:18:28;;;;;;;1.05;1.05;;;;;;;;;;6184304;23;20100;-87
2024/01/07 18:20:55;;;;;;;1.00;1.00;;;;;;;;;;6184042;23;20024;-89
2024/01/07 18:23:21;;;;;;;1.20;1.17;;;;;;;;;;6184670;23;20021;-87
2024/01/07 18:25:48;;;;;;;1.20;1.20;;;;;;;;;;6185036;23;20124;-94
2024/01/07 18:28:16;;;;;;;1.15;1.15;;;;;;;;;;6184411;23;20019;-90
2024/01/07 18:30:43;;;;;;;1.50;1.40;;;;;;;;;;6186295;23;20005;-90
2024/01/07 18:33:10;;;;;;;1.25;1.05;;;;;;;;;;6184629;23;20008;-89
2024/01/07 18:35:35;;;;;;;1.10;1.10;;;;;;;;;;6186931;23;20013;-87
2024/01/07 18:38:02;;;;;;;1.00;1.00;;;;;;;;;;6184437;23;20454;-87
2024/01/07 18:40:30;;;;;;;1.50;1.40;;;;;;;;;;6184601;23;20004;-89
2024/01/07 18:42:56;;;;;;;4.03;2.60;;;;;;;;;;6185088;23;20009;-90
2024/01/07 18:45:28;;;;;;;5.65;3.70;;;;;;;;;;6185085;23;20016;-89
2024/01/07 18:47:59;;;;;;;1.30;1.30;;;;;;;;;;6187095;23;20387;-89
2024/01/07 18:50:32;;;;;;;1.40;1.30;;;;;;;;;;6187800;23;20043;-89
2024/01/07 18:52:58;;;;;;;1.40;1.30;;;;;;;;;;6186342;23;20013;-88
2024/01/07 18:55:28;;;;;;;1.20;1.20;;;;;;;;;;6187845;23;20043;-89
2024/01/07 18:57:54;;;;;;;1.50;1.40;;;;;;;;;;6185969;23;20381;-89
2024/01/07 19:00:19;;;;;;;1.25;1.20;;;;;;;;;;6186227;23;20009;-89
2024/01/07 19:02:47;;;;;;;1.20;1.20;;;;;;;;;;6188321;23;20320;-89
2024/01/07 19:05:17;;;;;;;0.90;0.90;;;;;;;;;;6186038;23;20001;-90
2024/01/07 19:07:48;;;;;;;1.25;1.13;;;;;;;;;;6185307;23;20096;-89
2024/01/07 19:10:16;;;;;;;1.42;1.33;;;;;;;;;;6185306;23;20005;-90
2024/01/07 19:13:05;;;;;;;1.15;1.05;;;;;;;;;;6185478;23;20001;-89
2024/01/07 19:15:37;;;;;;;1.13;1.13;;;;;;;;;;6185992;23;20005;-88
2024/01/07 19:18:07;;;;;;;1.05;1.05;;;;;;;;;;6186522;23;20336;-93
2024/01/07 19:20:35;;;;;;;1.17;1.17;;;;;;;;;;6187049;23;20060;-90
2024/01/07 19:23:06;;;;;;;1.30;1.20;;;;;;;;;;6185725;23;20009;-87
2024/01/07 19:25:32;;;;;;;0.85;0.85;;;;;;;;;;6185800;23;20393;-90
2024/01/07 19:27:57;;;;;;;1.10;1.10;;;;;;;;;;6185670;23;20012;-88
2024/01/07 19:30:24;;;;;;;1.67;1.58;;;;;;;;;;6187760;23;20432;-91
2024/01/07 19:32:50;;;;;;;1.60;1.17;;;;;;;;;;6187108;23;20341;-90
2024/01/07 19:35:16;;;;;;;1.10;1.10;;;;;;;;;;6186949;23;20008;-90
2024/01/07 19:37:42;;;;;;;1.35;1.27;;;;;;;;;;6188047;23;20013;-90
2024/01/07 19:40:08;;;;;;;1.50;1.40;;;;;;;;;;6187094;23;20036;-87
2024/01/07 19:42:34;;;;;;;1.20;1.20;;;;;;;;;;6187115;23;20440;-91
2024/01/07 19:44:59;;;;;;;1.30;1.20;;;;;;;;;;6186982;23;20017;-90
2024/01/07 19:47:30;;;;;;;1.25;1.20;;;;;;;;;;6186718;23;20009;-90
2024/01/07 19:49:58;;;;;;;1.58;1.20;;;;;;;;;;6186409;23;20013;-90
2024/01/07 19:52:31;;;;;;;3.90;1.50;;;;;;;;;;6187069;23;20013;-91
2024/01/07 19:55:01;;;;;;;1.33;1.17;;;;;;;;;;6190626;23;20011;-91
2024/01/07 19:57:30;;;;;;;1.20;1.10;;;;;;;;;;6193112;23;20016;-92
2024/01/07 20:00:03;;;;;;;1.10;1.10;;;;;;;;;;6169720;23;20013;-90
2024/01/07 20:02:37;;;;;;;1.10;1.10;;;;;;;;;;6189441;23;20032;-92
2024/01/07 20:05:07;;;;;;;1.10;1.10;;;;;;;;;;6186417;23;20036;-90
2024/01/07 20:07:35;;;;;;;1.33;1.10;;;;;;;;;;6184971;23;20091;-91
2024/01/07 20:10:09;;;;;;;1.10;1.10;;;;;;;;;;6184425;23;20444;-90
2024/01/07 20:12:39;;;;;;;0.98;0.98;;;;;;;;;;6187345;23;20039;-90
2024/01/07 20:15:18;;;;;;;1.00;1.00;;;;;;;;;;6186969;23;20005;-90
2024/01/07 20:17:47;;;;;;;1.25;1.25;;;;;;;;;;6187220;23;20016;-90
2024/01/07 20:20:12;;;;;;;1.30;1.27;;;;;;;;;;6186873;23;20001;-90
2024/01/07 20:22:43;;;;;;;0.93;0.93;;;;;;;;;;6187536;23;20009;-90
2024/01/07 20:25:14;;;;;;;1.25;1.20;;;;;;;;;;6187567;23;20013;-90
2024/01/07 20:27:43;;;;;;;1.10;1.10;;;;;;;;;;6186253;23;20091;-91
2024/01/07 20:30:15;;;;;;;2.00;1.30;;;;;;;;;;6186946;23;20036;-90
2024/01/07 20:32:46;;;;;;;2.38;1.60;;;;;;;;;;6188778;23;20246;-91
2024/01/07 20:35:21;;;;;;;;;;;;;;;;;;;;;
2024/01/07 20:37:50;;;;;;;10.25;5.72;;;;;;;;;;6197385;23;20032;-92
2024/01/07 20:40:15;;;;;;;5.88;3.25;;;;;;;;;;6189957;23;20424;-91
2024/01/07 20:42:47;;;;;;;5.35;2.80;;;;;;;;;;6169520;23;20075;-92
2024/01/07 20:45:15;;;;;;;12.77;5.47;;;;;;;;;;6199506;23;20001;-91
2024/01/07 20:47:40;;;;;;;8.52;4.40;;;;;;;;;;6197220;23;20005;-90
2024/01/07 20:50:11;;;;;;;7.75;4.07;;;;;;;;;;6197855;23;20005;-90
2024/01/07 20:52:39;;;;;;;36.10;13.90;;;;;;;;;;6174924;23;20009;-91
2024/01/07 20:55:07;;;;;;;9.88;4.55;;;;;;;;;;6193466;23;20009;-91
2024/01/07 20:57:39;;;;;;;2.78;1.88;;;;;;;;;;6193348;23;20021;-90
2024/01/07 21:00:06;;;;;;;1.60;1.50;;;;;;;;;;6197043;23;20009;-90
2024/01/07 21:02:34;;;;;;;1.55;1.45;;;;;;;;;;6199412;23;20009;-89
2024/01/07 21:05:01;;;;;;;1.40;1.30;;;;;;;;;;6199734;23;20005;-91
2024/01/07 21:07:26;;;;;;;1.02;1.00;;;;;;;;;;6198854;23;20012;-89
2024/01/07 21:09:52;;;;;;;1.30;1.20;;;;;;;;;;6208169;23;20028;-88
2024/01/07 21:14:54;;;;;;;1.60;1.25;;;;;;;;;;6146792;23;20024;-89
2024/01/07 21:17:22;;;;;;;1.00;1.00;;;;;;;;;;6158576;23;20012;-94
2024/01/07 21:19:49;;;;;;;1.30;1.20;;;;;;;;;;6165362;23;20012;-93
2024/01/07 21:22:17;;;;;;;1.30;1.20;;;;;;;;;;6161704;23;20038;-93
2024/01/07 21:24:43;;;;;;;1.10;1.10;;;;;;;;;;6162890;23;20045;-93
2024/01/07 21:27:09;;;;;;;1.48;1.38;;;;;;;;;;6162520;23;20008;-93
2024/01/07 21:29:34;;;;;;;1.15;1.15;;;;;;;;;;6161633;23;20019;-94
2024/01/07 21:32:00;;;;;;;1.00;1.00;;;;;;;;;;6162088;23;20009;-92
2024/01/07 21:34:25;;;;;;;1.50;1.08;;;;;;;;;;6161850;23;20005;-93
2024/01/07 21:36:53;;;;;;;1.10;1.10;;;;;;;;;;6162207;23;20052;-94
2024/01/07 21:39:21;;;;;;;1.30;1.20;;;;;;;;;;6162156;23;20016;-94
2024/01/07 21:41:49;;;;;;;1.20;1.20;;;;;;;;;;6161663;23;20049;-90
2024/01/07 21:44:15;;;;;;;1.20;1.10;;;;;;;;;;6160678;23;20064;-95
2024/01/07 21:46:47;;;;;;;1.00;1.00;;;;;;;;;;6161769;23;20005;-91
2024/01/07 21:49:22;;;;;;;1.75;1.00;;;;;;;;;;6162210;23;20456;-93
2024/01/07 21:51:54;;;;;;;1.10;1.10;;;;;;;;;;6165619;23;20019;-89
2024/01/07 21:54:20;;;;;;;1.30;1.20;;;;;;;;;;6163527;23;20834;-90
2024/01/07 21:56:48;;;;;;;1.30;1.20;;;;;;;;;;6186805;23;20016;-92
2024/01/07 21:59:14;;;;;;;1.20;1.20;;;;;;;;;;6161470;23;20005;-94
2024/01/07 22:01:44;;;;;;;1.13;1.13;;;;;;;;;;6164053;23;20077;-92
2024/01/07 22:04:10;;;;;;;1.20;1.10;;;;;;;;;;6162933;23;20016;-93
2024/01/07 22:06:43;;;;;;;1.20;1.10;;;;;;;;;;6164025;23;20463;-93
2024/01/07 22:09:08;;;;;;;0.98;0.98;;;;;;;;;;6165713;23;20063;-94
2024/01/07 22:11:34;;;;;;;1.30;1.17;;;;;;;;;;6163930;23;20036;-94
2024/01/07 22:14:03;;;;;;;1.38;1.27;;;;;;;;;;6166315;23;20005;-95
2024/01/07 22:16:29;;;;;;;1.30;1.20;;;;;;;;;;6156303;23;20025;-94
2024/01/07 22:18:55;;;;;;;1.90;1.00;;;;;;;;;;6155943;23;20051;-92
2024/01/07 22:21:20;;;;;;;1.00;1.00;;;;;;;;;;6156924;23;20431;-94
2024/01/07 22:23:49;;;;;;;1.40;1.30;;;;;;;;;;6162797;23;20421;-92
2024/01/07 22:26:15;;;;;;;1.13;1.10;;;;;;;;;;6158459;23;20429;-93
2024/01/07 22:28:44;;;;;;;0.90;0.90;;;;;;;;;;6157894;23;20014;-94
2024/01/07 22:31:10;;;;;;;1.45;1.35;;;;;;;;;;6157876;23;20495;-94
2024/01/07 22:33:36;;;;;;;1.20;1.10;;;;;;;;;;6157803;23;19994;-92
2024/01/07 22:36:01;;;;;;;1.30;1.20;;;;;;;;;;6158222;23;20009;-92
2024/01/07 22:38:27;;;;;;;1.13;1.13;;;;;;;;;;6157763;23;20005;-93
2024/01/07 22:40:52;;;;;;;2.35;1.20;;;;;;;;;;6158625;23;20473;-93
2024/01/07 22:43:20;;;;;;;1.23;1.13;;;;;;;;;;6158655;23;20010;-94
2024/01/07 22:45:48;;;;;;;1.30;1.20;;;;;;;;;;6162357;23;20005;-92
2024/01/07 22:48:15;;;;;;;1.20;1.20;;;;;;;;;;6157758;23;20006;-91
2024/01/07 22:50:42;;;;;;;1.45;1.10;;;;;;;;;;6157121;23;20006;-92
2024/01/07 22:53:08;;;;;;;0.90;0.90;;;;;;;;;;6161293;23;20429;-91
